Terminal Aerodrome Forecast
Issued by NWS Upton, NY

Home | Current Version | Previous Version | Text Only | Print | Product List | Glossary On
Versions: 1 2 3 4 5 6 7 8 9 10 11 12 13 14 15 16 17 18 19 20 21 22 23 24 25
827
FTUS41 KOKX 101120
TAFISP
TAF
KISP 101120Z 1012/1112 VRB02KT 6SM -SN BR SCT015 OVC030
      TEMPO 1012/1015 2SM -SN BR BKN015
     FM101500 27010KT P6SM SCT015 BKN035
     FM101800 27013G21KT P6SM BKN040
     FM110200 27010KT P6SM BKN040=

USA.gov is the U.S. government's official web portal to all federal, state and local government web resources and services.